Aérodrome :
LOGIN :

S'inscrire | Disclaimer

   EN    FR    IT 

 










Légende :    VFR   VFR Marginal   IFR   IFR Intensif   IFR Très Intensif
Visi : 
Plafond : 
>= 8 km
>= 3000ft
5 à 8 km
1000 à 3000 ft
1500m à 5 km
500 à 1000 ft
800 à 1500m
200 à 500 ft
< 800m
< 200 ft
Symboles :   Orages  Brouillard  Fortes neiges  Fortes précipitations  Vent > 20 kt
SIGMETs :   Divers  Orages  Givrage  Turbulence  Onde Orograph.  Cendres Volcan.







- Altitude de l'aérodrome : 194 ft


EBCV - Chièvres

DERNIER METAR :
  • 231525Z AUTO 20016KT 9999 OVC010/// 09/08 Q1020 GRN

METARs EXPIRÉS :
  • 231455Z AUTO 20015KT 9999 OVC007/// 09/08 Q1020 GRN
  • 231446Z AUTO 20015KT 9999 DZ OVC007/// 09/08 Q1020 GRN
  • 231425Z AUTO 20017KT 2500 -RA OVC007/// 09/08 Q1020 YLO
  • 231355Z AUTO 21016KT 3100 -RA OVC013/// 09/08 Q1020 YLO
  • 231345Z AUTO 21017KT 3600 -RA OVC015/// 09/07 Q1020 YLO
  • 231333Z AUTO 21017KT 4800 OVC019/// 10/07 Q1020 GRN
  • 231325Z AUTO 21017KT 9999 OVC021/// 10/07 Q1020 WHT
  • 231255Z AUTO 21015KT 9999 OVC024/// 10/07 Q1020 WHT

TAF TAF EBCV
Valide du 23 à 13h jusqu'au 23 à 22h UTC


231141Z 2313/2322 21012KT 9999 SCT022 BKN035
BECMG 2313/2314 21015KT SCT008 BKN012
TEMPO 2314/2316 21015G25KT 3000 -RADZ SCT004 BKN006
TEMPO 2316/2322 21017G28KT 4500 -DZ FEW004 SCT006 BKN008 BY EBWM
Pas de NOTAMs connus pour ce terrain.



MET'MAP, la Météo Aéronautique d'un coup d'oeil ! - Copyright ORBIFLY Décembre 2007 - Disclaimer

ORBIFLY MET'MAP TEAM :

Programmation & Développement : Alexandra Zaïnal
Conception & Développement : Baudouin d'Aumeries
Co-Programmation & Développement : Marc-Olivier Méhu
Soutien technique & logistique : Manuel Goepfert

Contact : metmap@orbifly.com




SOURCES & CREDITS :

   NOAA